createdAt,value
2022-12-23T00:01:50.301Z,10.30
2022-12-23T00:04:17.022Z,10.30
2022-12-23T00:06:43.638Z,10.30
2022-12-23T00:09:10.200Z,10.30
2022-12-23T00:11:36.792Z,10.30
2022-12-23T00:14:22.209Z,10.30
2022-12-23T00:16:50.317Z,10.20
2022-12-23T00:19:17.107Z,10.30
2022-12-23T00:21:43.677Z,10.30
2022-12-23T00:24:11.915Z,10.30
2022-12-23T00:26:38.708Z,10.30
2022-12-23T00:29:05.264Z,10.30
2022-12-23T00:31:31.849Z,10.30
2022-12-23T00:33:58.617Z,10.30
2022-12-23T00:36:30.957Z,10.30
2022-12-23T00:39:17.774Z,10.30
2022-12-23T00:42:23.358Z,10.30
2022-12-23T00:44:49.906Z,10.30
2022-12-23T00:47:36.577Z,10.30
2022-12-23T00:50:03.232Z,10.30
2022-12-23T00:52:30.034Z,10.20
2022-12-23T00:54:56.710Z,10.20
2022-12-23T00:57:23.304Z,10.20
2022-12-23T00:59:50.043Z,10.20
2022-12-23T01:02:35.280Z,10.20
2022-12-23T01:05:20.380Z,10.30
2022-12-23T01:07:46.938Z,10.30
2022-12-23T01:10:13.713Z,10.30
2022-12-23T01:12:40.371Z,10.20
2022-12-23T01:15:07.538Z,10.20
2022-12-23T01:17:34.120Z,10.20
2022-12-23T01:20:00.719Z,10.30
2022-12-23T01:22:27.304Z,10.20
2022-12-23T01:24:53.847Z,10.30
2022-12-23T01:27:20.392Z,10.30
2022-12-23T01:29:46.939Z,10.30
2022-12-23T01:32:14.126Z,10.40
2022-12-23T01:34:40.755Z,10.40
2022-12-23T01:37:07.402Z,10.40
2022-12-23T01:39:33.970Z,10.50
2022-12-23T01:42:19.186Z,10.50
2022-12-23T01:44:57.759Z,10.50
2022-12-23T01:47:38.884Z,10.50
2022-12-23T01:50:08.233Z,10.50
2022-12-23T01:52:39.822Z,10.60
2022-12-23T01:55:07.303Z,10.60
2022-12-23T01:57:36.100Z,10.60
2022-12-23T02:00:21.954Z,10.60
2022-12-23T02:03:10.342Z,10.60
2022-12-23T02:05:38.267Z,10.60
2022-12-23T02:08:23.415Z,10.50
2022-12-23T02:11:11.718Z,10.50
2022-12-23T02:14:09.976Z,10.50
2022-12-23T02:16:48.260Z,10.50
2022-12-23T02:19:22.700Z,10.50
2022-12-23T02:22:18.452Z,10.50
2022-12-23T02:25:05.057Z,10.50
2022-12-23T02:27:54.506Z,10.40
2022-12-23T02:31:00.923Z,10.50
2022-12-23T02:33:53.682Z,10.40
2022-12-23T02:36:36.386Z,10.30
2022-12-23T02:39:11.977Z,10.30
2022-12-23T02:41:57.303Z,10.40
2022-12-23T02:44:32.880Z,10.40
2022-12-23T02:47:06.242Z,10.30
2022-12-23T02:49:38.039Z,10.30
2022-12-23T02:52:12.613Z,10.30
2022-12-23T02:54:44.816Z,10.40
2022-12-23T02:57:14.873Z,10.30
2022-12-23T02:59:46.875Z,10.30
2022-12-23T03:02:13.694Z,10.30
2022-12-23T03:04:41.985Z,10.40
2022-12-23T03:07:30.426Z,10.40
2022-12-23T03:10:14.958Z,10.40
2022-12-23T03:13:16.507Z,10.40
2022-12-23T03:15:51.962Z,10.40
2022-12-23T03:18:44.169Z,10.40
2022-12-23T03:21:22.515Z,10.40
2022-12-23T03:23:58.242Z,10.40
2022-12-23T03:26:39.314Z,10.40
2022-12-23T03:29:34.179Z,10.40
2022-12-23T03:32:02.607Z,10.40
2022-12-23T03:34:34.152Z,10.30
2022-12-23T03:37:05.827Z,10.30
2022-12-23T03:39:55.046Z,10.20
2022-12-23T03:42:41.331Z,10.40
2022-12-23T03:48:07.311Z,10.40
2022-12-23T03:50:36.309Z,10.40
2022-12-23T03:53:10.026Z,10.30
2022-12-23T03:55:54.013Z,10.30
2022-12-23T03:58:34.915Z,10.30
2022-12-23T04:01:07.311Z,10.30
2022-12-23T04:03:45.483Z,10.30
2022-12-23T04:06:16.428Z,10.30
2022-12-23T04:08:46.190Z,10.30
2022-12-23T04:11:13.049Z,10.30
2022-12-23T04:13:39.966Z,10.30
2022-12-23T04:16:07.465Z,10.30
2022-12-23T04:18:34.072Z,10.30
2022-12-23T04:21:00.809Z,10.30
2022-12-23T04:23:27.360Z,10.30
2022-12-23T04:25:53.927Z,10.30
2022-12-23T04:28:20.629Z,10.30
2022-12-23T04:30:47.182Z,10.30
2022-12-23T04:33:13.783Z,10.20
2022-12-23T04:35:40.331Z,10.30
2022-12-23T04:38:07.597Z,10.20
2022-12-23T04:40:34.249Z,10.20
2022-12-23T04:43:00.865Z,10.20
2022-12-23T04:45:29.568Z,10.30
2022-12-23T04:47:56.198Z,10.30
2022-12-23T04:50:23.070Z,10.30
2022-12-23T04:52:49.613Z,10.30
2022-12-23T04:55:16.200Z,10.30
2022-12-23T04:57:42.793Z,10.40
2022-12-23T05:00:10.044Z,10.40
2022-12-23T05:02:37.475Z,10.40
2022-12-23T05:05:04.612Z,10.40
2022-12-23T05:07:31.180Z,10.50
2022-12-23T05:10:01.581Z,10.40
2022-12-23T05:12:31.895Z,10.40
2022-12-23T05:14:58.514Z,10.40
2022-12-23T05:17:25.212Z,10.50
2022-12-23T05:19:51.790Z,10.30
2022-12-23T05:22:18.575Z,10.30
2022-12-23T05:24:45.822Z,10.40
2022-12-23T05:27:12.361Z,10.30
2022-12-23T05:29:38.908Z,10.30
2022-12-23T05:32:05.762Z,10.30
2022-12-23T05:34:32.383Z,10.30
2022-12-23T05:36:59.000Z,10.30
2022-12-23T05:39:25.596Z,10.30
2022-12-23T05:41:52.213Z,10.40
2022-12-23T05:44:18.938Z,10.40
2022-12-23T05:46:45.487Z,10.40
2022-12-23T05:49:12.049Z,10.40
2022-12-23T05:51:38.583Z,10.40
2022-12-23T05:54:05.220Z,10.40
2022-12-23T05:56:31.795Z,10.40
2022-12-23T05:58:58.330Z,10.50
2022-12-23T06:01:24.920Z,10.30
2022-12-23T06:03:51.543Z,10.30
2022-12-23T06:06:18.212Z,10.30
2022-12-23T06:08:44.782Z,10.30
2022-12-23T06:11:12.675Z,10.30
2022-12-23T06:13:39.473Z,10.30
2022-12-23T06:16:06.522Z,10.30
2022-12-23T06:18:33.121Z,10.20
2022-12-23T06:20:59.677Z,10.20
2022-12-23T06:23:26.243Z,10.20
2022-12-23T06:25:59.914Z,10.10
2022-12-23T06:28:27.380Z,10.10
2022-12-23T06:30:57.443Z,10.10
2022-12-23T06:33:24.943Z,10.10
2022-12-23T06:35:51.486Z,10.20
2022-12-23T06:38:18.053Z,10.20
2022-12-23T06:40:44.614Z,10.10
2022-12-23T06:43:13.253Z,10.10
2022-12-23T06:45:40.394Z,10.10
2022-12-23T06:48:07.477Z,10.10
2022-12-23T06:50:34.055Z,10.10
2022-12-23T06:53:00.660Z,10.10
2022-12-23T06:55:27.281Z,10.10
2022-12-23T06:57:53.888Z,10.10
2022-12-23T07:00:20.667Z,10.10
2022-12-23T07:02:47.480Z,10.10
2022-12-23T07:05:14.219Z,10.10
2022-12-23T07:07:40.757Z,10.10
2022-12-23T07:10:08.131Z,10.00
2022-12-23T07:12:34.730Z,10.00
2022-12-23T07:15:01.623Z,10.10
2022-12-23T07:17:28.314Z,10.10
2022-12-23T07:19:54.898Z,10.10
2022-12-23T07:22:21.511Z,10.00
2022-12-23T07:24:48.090Z,10.00
2022-12-23T07:27:14.670Z,10.00
2022-12-23T07:29:41.252Z,10.00
2022-12-23T07:32:07.986Z,10.00
2022-12-23T07:34:34.643Z,10.00
2022-12-23T07:37:01.291Z,10.00
2022-12-23T07:39:28.418Z,9.90
2022-12-23T07:42:16.504Z,10.00
2022-12-23T07:44:41.490Z,10.00
2022-12-23T07:47:08.672Z,10.00
2022-12-23T07:49:35.291Z,10.00
2022-12-23T07:52:01.836Z,10.00
2022-12-23T07:54:28.657Z,10.00
2022-12-23T07:56:56.032Z,10.00
2022-12-23T07:59:25.651Z,10.00
2022-12-23T08:01:52.354Z,9.90
2022-12-23T08:04:19.017Z,9.90
2022-12-23T08:06:45.633Z,10.00
2022-12-23T08:09:12.217Z,10.00
2022-12-23T08:11:38.784Z,10.00
2022-12-23T08:14:05.332Z,10.00
2022-12-23T08:16:34.309Z,10.10
2022-12-23T08:19:04.479Z,10.10
2022-12-23T08:21:31.060Z,10.10
2022-12-23T08:23:57.607Z,10.10
2022-12-23T08:26:24.863Z,10.20
2022-12-23T08:28:53.459Z,10.20
2022-12-23T08:31:23.409Z,10.20
2022-12-23T08:33:52.457Z,10.20
2022-12-23T08:36:23.537Z,10.20
2022-12-23T08:38:52.404Z,10.20
2022-12-23T08:41:28.090Z,10.20
2022-12-23T08:43:55.547Z,10.20
2022-12-23T08:46:23.559Z,10.20
2022-12-23T08:48:50.677Z,10.20
2022-12-23T08:51:19.153Z,10.20
2022-12-23T08:53:46.233Z,10.30
2022-12-23T08:56:15.944Z,10.20
2022-12-23T08:58:45.421Z,10.20
2022-12-23T09:01:14.772Z,10.10
2022-12-23T09:03:42.805Z,10.10
2022-12-23T09:06:16.224Z,10.20
2022-12-23T09:08:43.299Z,10.10
2022-12-23T09:11:18.023Z,10.20
2022-12-23T09:13:45.313Z,10.30
2022-12-23T09:16:12.283Z,10.40
2022-12-23T09:18:39.253Z,10.30
2022-12-23T09:21:07.662Z,10.30
2022-12-23T09:23:34.728Z,10.10
2022-12-23T09:26:01.355Z,10.00
2022-12-23T09:28:27.920Z,10.00
2022-12-23T09:30:54.560Z,10.00
2022-12-23T09:33:21.274Z,10.00
2022-12-23T09:35:47.904Z,10.00
2022-12-23T09:38:14.499Z,10.10
2022-12-23T09:40:42.302Z,10.10
2022-12-23T09:43:39.860Z,10.00
2022-12-23T09:46:19.214Z,10.00
2022-12-23T09:48:58.956Z,10.10
2022-12-23T09:51:26.223Z,10.00
2022-12-23T09:54:03.083Z,9.90
2022-12-23T09:56:52.824Z,9.90
2022-12-23T09:59:25.146Z,10.00
2022-12-23T10:02:05.039Z,10.20
2022-12-23T10:04:47.355Z,10.30
2022-12-23T10:07:31.659Z,10.20
2022-12-23T10:10:02.852Z,10.30
2022-12-23T10:12:40.756Z,10.40
2022-12-23T10:15:28.230Z,10.40
2022-12-23T10:17:58.932Z,10.30
2022-12-23T10:20:37.507Z,10.40
2022-12-23T10:23:08.652Z,10.40
2022-12-23T10:25:46.258Z,10.40
2022-12-23T10:28:12.834Z,10.50
2022-12-23T10:31:05.837Z,10.50
2022-12-23T10:33:43.595Z,10.60
2022-12-23T10:36:17.050Z,10.60
2022-12-23T10:39:09.591Z,10.60
2022-12-23T10:42:02.631Z,10.70
2022-12-23T10:44:54.191Z,10.70
2022-12-23T10:47:38.941Z,10.70
2022-12-23T10:50:46.009Z,10.70
2022-12-23T10:53:19.967Z,10.60
2022-12-23T10:55:48.829Z,10.60
2022-12-23T10:58:18.290Z,10.70
2022-12-23T11:00:51.399Z,10.70
2022-12-23T11:03:28.655Z,10.60
2022-12-23T11:05:56.728Z,10.60
2022-12-23T11:08:25.785Z,10.50
2022-12-23T11:10:53.737Z,10.40
2022-12-23T11:13:35.124Z,10.30
2022-12-23T11:16:25.167Z,10.30
2022-12-23T11:18:57.516Z,10.20
2022-12-23T11:21:24.468Z,10.20
2022-12-23T11:24:27.924Z,10.10
2022-12-23T11:27:03.259Z,10.10
2022-12-23T11:29:37.139Z,10.00
2022-12-23T11:32:16.373Z,10.00
2022-12-23T11:34:45.732Z,10.00
2022-12-23T11:37:40.359Z,10.00
2022-12-23T11:40:32.563Z,10.00
2022-12-23T11:43:02.841Z,10.00
2022-12-23T11:45:33.948Z,10.00
2022-12-23T11:48:00.756Z,10.00
2022-12-23T11:50:36.321Z,9.90
2022-12-23T11:53:14.575Z,9.90
2022-12-23T11:56:05.296Z,9.90
2022-12-23T11:58:46.233Z,9.90
2022-12-23T12:01:21.257Z,9.90
2022-12-23T12:04:00.226Z,9.90
2022-12-23T12:06:27.708Z,9.90
2022-12-23T12:08:57.800Z,10.00
2022-12-23T12:11:36.356Z,10.00
2022-12-23T12:14:05.488Z,10.00
2022-12-23T12:16:54.199Z,10.00
2022-12-23T12:19:59.272Z,10.00
2022-12-23T12:22:38.321Z,10.00
2022-12-23T12:25:17.577Z,9.90
2022-12-23T12:27:53.748Z,9.90
2022-12-23T12:30:21.656Z,9.80
2022-12-23T12:33:00.987Z,9.90
2022-12-23T12:35:40.439Z,9.90
2022-12-23T12:38:19.701Z,9.90
2022-12-23T12:40:51.063Z,9.80
2022-12-23T12:43:28.226Z,9.80
2022-12-23T12:46:32.099Z,9.80
2022-12-23T12:49:20.729Z,9.70
2022-12-23T12:51:58.297Z,9.70
2022-12-23T12:54:26.963Z,9.70
2022-12-23T12:56:58.433Z,9.70
2022-12-23T12:59:38.627Z,9.80
2022-12-23T13:02:45.326Z,9.70
2022-12-23T13:05:30.832Z,9.60
2022-12-23T13:08:06.776Z,9.60
2022-12-23T13:10:55.639Z,9.70
2022-12-23T13:13:30.469Z,9.70
2022-12-23T13:16:23.827Z,9.70
2022-12-23T13:19:08.960Z,9.80
2022-12-23T13:22:05.903Z,9.80
2022-12-23T13:24:38.783Z,9.80
2022-12-23T13:27:17.037Z,9.90
2022-12-23T13:29:57.962Z,9.90
2022-12-23T13:32:41.081Z,10.00
2022-12-23T13:35:24.307Z,10.00
2022-12-23T13:38:17.544Z,10.10
2022-12-23T13:41:08.664Z,10.10
2022-12-23T13:44:02.107Z,10.30
2022-12-23T13:46:56.343Z,10.50
2022-12-23T13:49:40.553Z,10.60
2022-12-23T13:52:22.901Z,10.70
2022-12-23T13:55:21.729Z,10.90
2022-12-23T13:58:07.214Z,11.30
2022-12-23T14:00:34.704Z,11.60
2022-12-23T14:03:01.254Z,11.80
2022-12-23T14:05:35.829Z,11.90
2022-12-23T14:08:20.988Z,12.10
2022-12-23T14:10:58.464Z,12.10
2022-12-23T14:13:28.579Z,12.30
2022-12-23T14:16:15.372Z,12.30
2022-12-23T14:19:14.108Z,12.40
2022-12-23T14:21:49.082Z,12.70
2022-12-23T14:24:25.737Z,12.80
2022-12-23T14:27:16.966Z,12.90
2022-12-23T14:30:09.394Z,13.00
2022-12-23T14:32:47.073Z,13.10
2022-12-23T14:35:27.124Z,13.20
2022-12-23T14:38:09.542Z,13.30
2022-12-23T14:40:39.260Z,13.30
2022-12-23T14:43:50.971Z,13.30
2022-12-23T14:46:35.888Z,13.30
2022-12-23T14:49:36.885Z,13.30
2022-12-23T14:51:50.970Z,13.30
2022-12-23T14:54:36.329Z,13.40
2022-12-23T14:57:16.567Z,13.40
2022-12-23T15:00:10.058Z,13.30
2022-12-23T15:02:40.768Z,13.30
2022-12-23T15:05:09.502Z,13.20
2022-12-23T15:07:40.550Z,13.20
2022-12-23T15:10:16.800Z,13.20
2022-12-23T15:12:47.606Z,13.20
2022-12-23T15:15:33.651Z,13.20
2022-12-23T15:18:06.284Z,13.20
2022-12-23T15:20:34.932Z,13.30
2022-12-23T15:23:08.392Z,13.20
2022-12-23T15:25:40.744Z,13.30
2022-12-23T15:28:19.129Z,13.20
2022-12-23T15:30:53.503Z,13.20
2022-12-23T15:34:00.997Z,13.30
2022-12-23T15:36:10.424Z,13.20
2022-12-23T15:38:38.938Z,13.10
2022-12-23T15:41:14.253Z,13.00
2022-12-23T15:43:42.608Z,13.00
2022-12-23T15:46:18.904Z,13.10
2022-12-23T15:48:48.311Z,13.10
2022-12-23T15:51:57.751Z,13.10
2022-12-23T15:54:27.384Z,13.10
2022-12-23T15:56:56.587Z,13.20
2022-12-23T15:59:38.266Z,13.20
2022-12-23T16:02:50.192Z,13.20
2022-12-23T16:05:08.177Z,13.20
2022-12-23T16:07:38.242Z,13.20
2022-12-23T16:10:16.345Z,13.30
2022-12-23T16:12:43.669Z,13.30
2022-12-23T16:15:25.002Z,13.30
2022-12-23T16:17:51.719Z,13.10
2022-12-23T16:20:26.047Z,12.90
2022-12-23T16:23:01.563Z,12.80
2022-12-23T16:25:32.924Z,12.90
2022-12-23T16:28:14.450Z,12.80
2022-12-23T16:30:42.447Z,12.60
2022-12-23T16:33:27.872Z,12.50
2022-12-23T16:35:55.769Z,12.60
2022-12-23T16:38:22.392Z,12.60
2022-12-23T16:40:51.146Z,12.60
2022-12-23T16:43:18.888Z,12.50
2022-12-23T16:45:47.746Z,12.60
2022-12-23T16:48:32.300Z,12.60
2022-12-23T16:51:00.519Z,12.60
2022-12-23T16:53:27.560Z,12.50
2022-12-23T16:56:00.292Z,12.50
2022-12-23T16:58:27.613Z,12.40
2022-12-23T17:00:54.458Z,12.40
2022-12-23T17:03:21.320Z,12.40
2022-12-23T17:05:48.643Z,12.40
2022-12-23T17:08:15.499Z,12.40
2022-12-23T17:10:44.451Z,12.50
2022-12-23T17:13:17.027Z,12.50
2022-12-23T17:15:43.775Z,12.50
2022-12-23T17:18:17.289Z,12.50
2022-12-23T17:20:45.961Z,12.50
2022-12-23T17:23:29.201Z,12.50
2022-12-23T17:25:55.935Z,12.60
2022-12-23T17:28:23.234Z,12.60
2022-12-23T17:30:54.684Z,12.70
2022-12-23T17:33:23.959Z,12.60
2022-12-23T17:35:50.500Z,12.60
2022-12-23T17:38:17.231Z,12.50
2022-12-23T17:40:46.802Z,12.40
2022-12-23T17:43:15.558Z,12.40
2022-12-23T17:45:42.666Z,12.30
2022-12-23T17:48:19.947Z,12.20
2022-12-23T17:50:48.680Z,12.40
2022-12-23T17:53:19.657Z,12.30
2022-12-23T17:55:46.805Z,12.30
2022-12-23T17:58:14.207Z,12.30
2022-12-23T18:00:41.057Z,12.20
2022-12-23T18:03:15.752Z,12.20
2022-12-23T18:05:42.425Z,12.30
2022-12-23T18:08:08.969Z,12.30
2022-12-23T18:10:39.020Z,12.30
2022-12-23T18:13:09.489Z,12.20
2022-12-23T18:15:38.435Z,12.20
2022-12-23T18:18:27.288Z,12.20
2022-12-23T18:20:58.212Z,12.20
2022-12-23T18:23:30.168Z,12.30
2022-12-23T18:25:57.512Z,12.30
2022-12-23T18:28:24.840Z,12.20
2022-12-23T18:30:54.485Z,12.20
2022-12-23T18:33:21.109Z,12.20
2022-12-23T18:35:51.277Z,12.20
2022-12-23T18:38:18.053Z,12.20
2022-12-23T18:40:45.156Z,12.20
2022-12-23T18:43:23.887Z,12.30
2022-12-23T18:45:53.809Z,12.30
2022-12-23T18:48:21.173Z,12.20
2022-12-23T18:50:47.733Z,12.30
2022-12-23T18:53:23.434Z,12.30
2022-12-23T18:55:51.202Z,12.20
2022-12-23T18:58:18.576Z,12.20
2022-12-23T19:00:45.752Z,12.30
2022-12-23T19:03:23.474Z,12.20
2022-12-23T19:05:51.100Z,12.30
2022-12-23T19:08:25.403Z,12.20
2022-12-23T19:10:53.953Z,12.20
2022-12-23T19:13:20.604Z,12.10
2022-12-23T19:15:47.248Z,12.20
2022-12-23T19:18:20.448Z,12.00
2022-12-23T19:20:48.615Z,12.10
2022-12-23T19:23:16.084Z,12.10
2022-12-23T19:25:49.204Z,12.10
2022-12-23T19:28:21.739Z,12.10
2022-12-23T19:30:48.616Z,12.00
2022-12-23T19:33:15.466Z,12.00
2022-12-23T19:35:42.763Z,12.00
2022-12-23T19:38:10.177Z,11.80
2022-12-23T19:40:36.831Z,11.80
2022-12-23T19:43:04.025Z,11.80
2022-12-23T19:45:30.578Z,11.70
2022-12-23T19:47:57.148Z,11.80
2022-12-23T19:50:23.744Z,11.80
2022-12-23T19:52:50.651Z,11.80
2022-12-23T19:55:17.461Z,11.90
2022-12-23T19:57:44.201Z,12.10
2022-12-23T20:00:11.312Z,12.00
2022-12-23T20:02:37.975Z,12.00
2022-12-23T20:05:05.266Z,12.00
2022-12-23T20:07:31.843Z,12.00
2022-12-23T20:09:58.374Z,12.00
2022-12-23T20:12:26.317Z,12.10
2022-12-23T20:14:52.873Z,12.00
2022-12-23T20:17:19.670Z,12.00
2022-12-23T20:19:46.624Z,11.90
2022-12-23T20:22:13.608Z,11.90
2022-12-23T20:24:40.225Z,11.90
2022-12-23T20:27:11.407Z,11.80
2022-12-23T20:29:38.602Z,11.80
2022-12-23T20:32:05.500Z,12.00
2022-12-23T20:34:38.668Z,12.00
2022-12-23T20:37:06.593Z,12.00
2022-12-23T20:39:33.281Z,12.00
2022-12-23T20:41:59.863Z,11.90
2022-12-23T20:44:35.579Z,11.60
2022-12-23T20:47:04.415Z,11.30
2022-12-23T20:49:31.125Z,11.40
2022-12-23T20:51:57.734Z,11.20
2022-12-23T20:54:31.559Z,11.00
2022-12-23T20:56:59.636Z,11.20
2022-12-23T20:59:26.407Z,11.30
2022-12-23T21:01:53.146Z,11.20
2022-12-23T21:04:20.375Z,11.10
2022-12-23T21:06:46.944Z,11.00
2022-12-23T21:09:15.428Z,10.90
2022-12-23T21:11:44.559Z,11.00
2022-12-23T21:14:11.463Z,11.00
2022-12-23T21:16:39.320Z,11.10
2022-12-23T21:19:07.372Z,11.20
2022-12-23T21:21:34.274Z,11.20
2022-12-23T21:24:04.247Z,11.20
2022-12-23T21:26:33.545Z,11.20
2022-12-23T21:29:01.853Z,11.20
2022-12-23T21:31:30.804Z,11.20
2022-12-23T21:33:58.277Z,11.30
2022-12-23T21:36:27.964Z,11.30
2022-12-23T21:38:55.149Z,11.30
2022-12-23T21:41:24.583Z,11.40
2022-12-23T21:43:51.991Z,11.40
2022-12-23T21:46:20.644Z,11.40
2022-12-23T21:48:48.150Z,11.40
2022-12-23T21:51:17.530Z,11.50
2022-12-23T21:53:45.741Z,11.50
2022-12-23T21:56:15.004Z,11.50
2022-12-23T21:58:42.235Z,11.60
2022-12-23T22:01:13.444Z,11.60
2022-12-23T22:03:40.220Z,11.50
2022-12-23T22:06:15.017Z,11.40
2022-12-23T22:08:41.707Z,11.40
2022-12-23T22:11:17.516Z,11.40
2022-12-23T22:13:45.478Z,11.50
2022-12-23T22:16:14.404Z,11.40
2022-12-23T22:18:41.317Z,11.50
2022-12-23T22:21:10.695Z,11.40
2022-12-23T22:23:38.315Z,11.50
2022-12-23T22:26:05.923Z,11.50
2022-12-23T22:28:35.237Z,11.50
2022-12-23T22:31:06.897Z,11.40
2022-12-23T22:33:34.511Z,11.40
2022-12-23T22:36:01.410Z,11.50
2022-12-23T22:38:28.156Z,11.40
2022-12-23T22:40:54.757Z,11.30
2022-12-23T22:43:21.372Z,11.40
2022-12-23T22:45:58.780Z,11.30
2022-12-23T22:48:26.289Z,11.40
2022-12-23T22:51:01.975Z,11.30
2022-12-23T22:53:30.030Z,11.30
2022-12-23T22:55:58.526Z,11.30
2022-12-23T22:58:25.992Z,11.30
2022-12-23T23:00:52.628Z,11.30
2022-12-23T23:03:19.367Z,11.30
2022-12-23T23:06:03.198Z,11.30
2022-12-23T23:08:30.521Z,11.20
2022-12-23T23:10:59.139Z,11.20
2022-12-23T23:13:29.274Z,11.00
2022-12-23T23:15:56.800Z,10.90
2022-12-23T23:18:24.446Z,10.90
2022-12-23T23:20:51.050Z,10.90
2022-12-23T23:23:17.647Z,10.90
2022-12-23T23:25:45.171Z,10.90
2022-12-23T23:28:11.873Z,10.90
2022-12-23T23:30:39.250Z,10.80
2022-12-23T23:33:07.301Z,10.80
2022-12-23T23:35:34.732Z,10.70
2022-12-23T23:38:01.517Z,10.70
2022-12-23T23:40:28.392Z,10.70
2022-12-23T23:42:54.944Z,10.80
2022-12-23T23:45:21.624Z,10.70
2022-12-23T23:47:48.233Z,10.70
2022-12-23T23:50:15.210Z,10.60
2022-12-23T23:52:41.773Z,10.70
2022-12-23T23:55:08.819Z,10.70
2022-12-23T23:57:35.390Z,10.80
